createdAt,value
2023-04-22T00:05:30.509Z,4.87
2023-04-22T00:12:12.801Z,4.79
2023-04-22T00:18:54.936Z,4.68
2023-04-22T00:25:37.081Z,4.44
2023-04-22T00:32:19.311Z,4.37
2023-04-22T00:39:01.724Z,4.33
2023-04-22T00:45:44.857Z,4.29
2023-04-22T00:52:27.019Z,4.25
2023-04-22T00:59:09.961Z,4.23
2023-04-22T01:05:52.309Z,4.18
2023-04-22T01:12:34.777Z,4.12
2023-04-22T01:19:17.610Z,3.97
2023-04-22T01:26:00.062Z,3.75
2023-04-22T01:32:42.589Z,3.55
2023-04-22T01:39:24.876Z,3.35
2023-04-22T01:46:08.571Z,3.19
2023-04-22T01:52:50.966Z,3.07
2023-04-22T01:59:33.129Z,3.03
2023-04-22T02:06:15.370Z,3.02
2023-04-22T02:12:57.908Z,2.99
2023-04-22T02:19:40.376Z,2.98
2023-04-22T02:26:23.733Z,2.95
2023-04-22T02:33:05.984Z,2.92
2023-04-22T02:39:49.512Z,2.90
2023-04-22T02:46:32.844Z,2.95
2023-04-22T02:53:15.102Z,3.00
2023-04-22T02:59:57.352Z,3.06
2023-04-22T03:06:40.271Z,3.15
2023-04-22T03:13:22.737Z,3.28
2023-04-22T03:20:07.333Z,3.46
2023-04-22T03:26:49.714Z,3.54
2023-04-22T03:33:31.901Z,3.56
2023-04-22T03:40:21.122Z,3.60
2023-04-22T03:47:04.674Z,3.69
2023-04-22T03:53:53.605Z,3.78
2023-04-22T04:00:38.867Z,3.92
2023-04-22T04:07:25.881Z,4.15
2023-04-22T04:14:08.201Z,4.42
2023-04-22T04:21:04.429Z,4.64
2023-04-22T04:27:51.899Z,4.85
2023-04-22T04:34:34.898Z,5.03
2023-04-22T04:41:21.157Z,5.19
2023-04-22T04:48:09.424Z,5.37
2023-04-22T04:54:56.235Z,5.57
2023-04-22T05:01:39.085Z,5.78
2023-04-22T05:08:24.282Z,6.02
2023-04-22T05:15:10.894Z,6.26
2023-04-22T05:21:53.772Z,6.45
2023-04-22T05:28:36.010Z,6.64
2023-04-22T05:35:19.794Z,6.84
2023-04-22T05:42:02.705Z,7.05
2023-04-22T05:48:45.745Z,7.28
2023-04-22T05:55:48.035Z,7.53
2023-04-22T06:02:30.850Z,7.74
2023-04-22T06:09:13.205Z,8.00
2023-04-22T06:15:57.830Z,8.29
2023-04-22T06:22:40.998Z,8.55
2023-04-22T06:29:25.501Z,8.83
2023-04-22T06:36:08.936Z,9.12
2023-04-22T06:42:52.881Z,9.36
2023-04-22T06:49:38.410Z,9.61
2023-04-22T06:56:36.161Z,9.91
2023-04-22T07:03:18.589Z,10.21
2023-04-22T07:10:10.869Z,10.51
2023-04-22T07:17:01.767Z,10.80
2023-04-22T07:23:43.867Z,11.04
2023-04-22T07:30:26.214Z,11.29
2023-04-22T07:37:09.542Z,11.58
2023-04-22T07:43:52.370Z,11.93
2023-04-22T07:50:35.219Z,12.19
2023-04-22T07:57:21.809Z,12.40
2023-04-22T08:04:04.156Z,12.61
2023-04-22T08:10:46.527Z,12.89
2023-04-22T08:17:28.855Z,13.27
2023-04-22T08:24:11.181Z,13.54
2023-04-22T08:30:53.437Z,13.83
2023-04-22T08:37:36.072Z,14.12
2023-04-22T08:44:19.294Z,14.52
2023-04-22T08:51:01.801Z,14.89
2023-04-22T08:57:45.021Z,15.26
2023-04-22T09:04:27.401Z,15.66
2023-04-22T09:11:10.516Z,15.92
2023-04-22T09:17:52.873Z,16.19
2023-04-22T09:24:35.804Z,16.60
2023-04-22T09:31:18.269Z,17.02
2023-04-22T09:38:03.253Z,17.42
2023-04-22T09:44:54.178Z,17.74
2023-04-22T09:51:42.517Z,18.01
2023-04-22T09:58:27.318Z,18.28
2023-04-22T10:05:10.183Z,18.54
2023-04-22T10:11:55.336Z,18.90
2023-04-22T10:18:40.679Z,19.11
2023-04-22T10:25:25.780Z,19.32
2023-04-22T10:32:11.090Z,19.58
2023-04-22T10:38:53.239Z,19.63
2023-04-22T10:45:36.727Z,19.82
2023-04-22T10:52:30.817Z,19.99
2023-04-22T10:59:17.295Z,19.98
2023-04-22T11:06:17.085Z,20.13
2023-04-22T11:13:02.153Z,20.21
2023-04-22T11:19:44.351Z,20.38
2023-04-22T11:26:37.482Z,20.49
2023-04-22T11:33:20.420Z,20.73
2023-04-22T11:46:49.507Z,21.41
2023-04-22T11:53:31.781Z,21.66
2023-04-22T12:00:17.462Z,21.76
2023-04-22T12:06:59.586Z,21.83
2023-04-22T12:13:45.659Z,21.91
2023-04-22T12:20:37.087Z,22.09
2023-04-22T12:27:19.264Z,22.26
2023-04-22T12:34:02.172Z,22.36
2023-04-22T12:40:44.557Z,22.35
2023-04-22T12:47:27.078Z,22.44
2023-04-22T12:54:10.701Z,22.44
2023-04-22T13:00:52.949Z,22.51
2023-04-22T13:07:35.271Z,22.42
2023-04-22T13:14:18.111Z,22.44
2023-04-22T13:21:00.350Z,22.48
2023-04-22T13:27:42.633Z,22.48
2023-04-22T13:34:24.985Z,22.42
2023-04-22T13:41:07.224Z,22.41
2023-04-22T13:47:49.645Z,22.45
2023-04-22T13:54:31.917Z,22.46
2023-04-22T14:01:14.349Z,22.55
2023-04-22T14:07:59.942Z,22.73
2023-04-22T14:14:42.421Z,22.94
2023-04-22T14:21:27.125Z,23.02
2023-04-22T14:28:16.453Z,23.06
2023-04-22T14:34:58.686Z,22.90
2023-04-22T14:41:41.065Z,22.85
2023-04-22T14:48:25.199Z,22.64
2023-04-22T14:55:19.357Z,22.59
2023-04-22T15:02:06.386Z,22.54
2023-04-22T15:08:49.177Z,22.45
2023-04-22T15:15:32.079Z,22.34
2023-04-22T15:22:14.240Z,22.25
2023-04-22T15:28:56.455Z,22.09
2023-04-22T15:35:38.649Z,21.87
2023-04-22T15:42:20.798Z,21.77
2023-04-22T15:49:04.218Z,21.60
2023-04-22T15:55:47.423Z,21.34
2023-04-22T16:02:30.988Z,21.08
2023-04-22T16:09:13.458Z,20.83
2023-04-22T16:15:57.018Z,20.60
2023-04-22T16:22:39.083Z,20.42
2023-04-22T16:29:21.242Z,20.19
2023-04-22T16:36:03.657Z,20.05
2023-04-22T16:42:45.814Z,19.86
2023-04-22T16:49:28.215Z,19.59
2023-04-22T16:56:11.194Z,19.34
2023-04-22T17:02:53.459Z,19.14
2023-04-22T17:09:35.726Z,18.89
2023-04-22T17:16:18.289Z,18.59
2023-04-22T17:23:00.834Z,18.25
2023-04-22T17:29:43.286Z,17.95
2023-04-22T17:36:25.655Z,17.66
2023-04-22T17:43:07.879Z,17.35
2023-04-22T17:49:50.314Z,17.08
2023-04-22T17:56:32.519Z,16.81
2023-04-22T18:03:14.952Z,16.56
2023-04-22T18:09:57.129Z,16.23
2023-04-22T18:16:39.337Z,15.92
2023-04-22T18:23:21.997Z,15.61
2023-04-22T18:30:05.100Z,15.35
2023-04-22T18:36:47.291Z,15.07
2023-04-22T18:43:29.546Z,14.83
2023-04-22T18:50:11.917Z,14.62
2023-04-22T18:56:54.079Z,14.40
2023-04-22T19:03:36.631Z,14.14
2023-04-22T19:10:19.107Z,13.90
2023-04-22T19:17:01.321Z,13.62
2023-04-22T19:23:43.582Z,13.36
2023-04-22T19:30:27.830Z,13.15
2023-04-22T19:37:09.981Z,12.90
2023-04-22T19:43:52.171Z,12.66
2023-04-22T19:50:34.879Z,12.50
2023-04-22T19:57:17.213Z,12.31
2023-04-22T20:04:00.290Z,12.02
2023-04-22T20:10:44.727Z,11.76
2023-04-22T20:17:27.626Z,11.63
2023-04-22T20:24:18.994Z,11.45
2023-04-22T20:31:01.622Z,11.27
2023-04-22T20:37:46.286Z,11.09
2023-04-22T20:44:28.714Z,10.88
2023-04-22T20:51:11.075Z,10.60
2023-04-22T20:57:53.326Z,10.33
2023-04-22T21:04:36.374Z,10.06
2023-04-22T21:11:18.909Z,9.82
2023-04-22T21:18:03.092Z,9.64
2023-04-22T21:24:49.569Z,9.54
2023-04-22T21:31:31.734Z,9.42
2023-04-22T21:38:16.362Z,9.31
2023-04-22T21:44:58.492Z,9.23
2023-04-22T21:51:40.867Z,9.14
2023-04-22T21:58:23.030Z,9.07
2023-04-22T22:05:05.483Z,9.00
2023-04-22T22:11:47.620Z,8.92
2023-04-22T22:18:29.798Z,8.87
2023-04-22T22:25:15.639Z,8.88
2023-04-22T22:31:57.808Z,8.90
2023-04-22T22:38:39.997Z,8.92
2023-04-22T22:45:22.161Z,8.96
2023-04-22T22:52:05.132Z,8.98
2023-04-22T22:58:48.250Z,9.04
2023-04-22T23:05:30.530Z,9.10
2023-04-22T23:12:12.696Z,9.13
2023-04-22T23:18:55.669Z,9.15
2023-04-22T23:25:38.231Z,9.20
2023-04-22T23:32:21.348Z,9.25
2023-04-22T23:39:05.821Z,9.29
2023-04-22T23:45:48.168Z,9.33
2023-04-22T23:52:30.642Z,9.36
2023-04-22T23:59:13.091Z,9.37
